Time;durP1;ratioP1;P1;durP2;ratioP2;P2;SDS_P1;SDS_P2;PMS_P1;PMS_P2;Temp;Humidity;BMP_temperature;BMP_pressure;BME280_temperature;BME280_humidity;BME280_pressure;Samples;Min_cycle;Max_cycle;Signal;HPM_P1;HPM_P2
2023/06/06 00:00:07;;;;;;;;;7.00;5.75;;;;;23.75;38.68;101321.41;4958792;28;46384;-46
2023/06/06 00:02:33;;;;;;;;;6.75;4.75;;;;;23.76;39.24;101328.38;4958848;28;45294;-47
2023/06/06 00:05:00;;;;;;;;;5.25;5.25;;;;;23.75;39.55;101321.41;4941201;28;45296;-46
2023/06/06 00:07:26;;;;;;;;;5.00;5.00;;;;;23.74;39.71;101316.19;4958441;28;45298;-47
2023/06/06 00:09:53;;;;;;;;;6.75;4.75;;;;;23.73;39.24;101315.38;4958133;28;45377;-47
2023/06/06 00:12:19;;;;;;;;;4.75;4.75;;;;;23.73;38.94;101315.38;4940893;28;45317;-49
2023/06/06 00:14:45;;;;;;;;;5.00;5.00;;;;;23.72;39.19;101308.38;4941440;28;45331;-48
2023/06/06 00:17:10;;;;;;;;;4.25;4.25;;;;;23.70;39.04;101312.91;4941227;28;45364;-45
2023/06/06 00:19:40;;;;;;;;;6.75;6.00;;;;;23.71;38.94;101311.09;4958362;28;45638;-46
2023/06/06 00:22:06;;;;;;;;;6.50;5.75;;;;;23.70;39.23;101318.19;4958575;28;45283;-47
2023/06/06 00:24:32;;;;;;;;;4.75;4.75;;;;;23.69;39.47;101308.53;4958344;28;45407;-45
2023/06/06 00:26:58;;;;;;;;;5.75;5.00;;;;;23.68;39.43;101312.13;4941054;28;45550;-46
2023/06/06 00:29:23;;;;;;;;;4.00;4.00;;;;;23.68;38.97;101317.41;4958165;28;45427;-46
2023/06/06 00:31:48;;;;;;;;;4.75;4.75;;;;;23.68;39.54;101312.13;4940294;28;58784;-47
2023/06/06 00:34:14;;;;;;;;;7.50;5.00;;;;;23.65;39.42;101304.38;4957933;28;45434;-45
2023/06/06 00:36:40;;;;;;;;;5.75;5.75;;;;;23.65;38.76;101309.66;4958436;28;45537;-45
2023/06/06 00:39:05;;;;;;;;;6.00;4.50;;;;;23.65;39.15;101307.03;4958405;28;45327;-46
2023/06/06 00:41:30;;;;;;;;;5.50;4.00;;;;;23.65;38.64;101308.81;4924654;28;45709;-47
2023/06/06 00:43:56;;;;;;;;;3.50;3.50;;;;;23.65;38.74;101312.31;4940716;28;45500;-46
2023/06/06 00:46:22;;;;;;;;;5.50;5.50;;;;;23.65;38.84;101304.38;4958034;28;45160;-44
2023/06/06 00:48:47;;;;;;;;;5.00;3.25;;;;;23.64;38.34;101300.06;4940281;28;46140;-46
2023/06/06 00:51:13;;;;;;;;;7.75;4.75;;;;;23.64;38.63;101302.69;4957013;28;45394;-49
2023/06/06 00:53:39;;;;;;;;;5.50;5.50;;;;;23.63;38.97;101307.13;4958517;28;45578;-46
2023/06/06 00:56:06;;;;;;;;;5.25;4.00;;;;;23.62;38.86;101301.94;4940869;28;45534;-45
2023/06/06 00:58:31;;;;;;;;;5.00;5.00;;;;;23.60;38.91;101304.66;4940231;28;45643;-45
2023/06/06 01:00:57;;;;;;;;;5.50;4.00;;;;;23.60;38.81;101298.53;4957216;28;45501;-46
2023/06/06 01:03:24;;;;;;;;;5.25;5.25;;;;;23.58;38.78;101296.00;4957704;28;45382;-46
2023/06/06 01:05:53;;;;;;;;;3.00;3.00;;;;;23.57;39.25;101293.41;4957932;28;45550;-48
2023/06/06 01:08:19;;;;;;;;;7.50;4.00;;;;;23.58;39.23;101293.34;4957408;28;46466;-44
2023/06/06 01:10:45;;;;;;;;;6.00;4.50;;;;;23.57;38.91;101298.72;4957454;28;45345;-42
2023/06/06 01:13:24;;;;;;;;;4.75;4.75;;;;;23.57;38.63;101293.41;4957761;28;45415;-43
2023/06/06 01:16:07;;;;;;;;;5.50;4.00;;;;;23.56;38.93;101291.72;4957698;28;45379;-44
2023/06/06 01:18:33;;;;;;;;;5.00;4.00;;;;;23.55;38.99;101288.22;4957492;28;45297;-47
2023/06/06 01:21:00;;;;;;;;;4.75;4.75;;;;;23.53;39.40;101284.81;4957426;28;45443;-45
2023/06/06 01:23:27;;;;;;;;;7.50;6.00;;;;;23.53;39.06;101286.63;4957517;28;45280;-44
2023/06/06 01:25:53;;;;;;;;;5.25;4.25;;;;;23.53;38.85;101286.63;4957624;28;45497;-43
2023/06/06 01:28:18;;;;;;;;;6.00;5.50;;;;;23.52;38.80;101291.06;4957146;28;45991;-44
2023/06/06 01:30:45;;;;;;;;;5.00;3.75;;;;;23.51;39.09;101284.06;4940085;28;45546;-43
2023/06/06 01:33:39;;;;;;;;;5.50;4.25;;;;;23.50;38.71;101278.88;4939969;28;45434;-43
2023/06/06 01:36:24;;;;;;;;;7.00;5.00;;;;;23.51;38.52;101285.88;4957477;28;45279;-43
2023/06/06 01:39:06;;;;;;;;;4.25;4.25;;;;;23.49;38.38;101282.47;4956979;28;45478;-45
2023/06/06 01:41:35;;;;;;;;;9.50;4.75;;;;;23.49;38.99;101280.66;4957193;28;45269;-44
2023/06/06 01:44:01;;;;;;;;;5.25;3.75;;;;;23.49;38.78;101279.81;4957227;28;45466;-46
2023/06/06 01:46:28;;;;;;;;;5.00;5.00;;;;;23.47;38.50;101287.84;4939905;28;45462;-44
2023/06/06 01:48:55;;;;;;;;;5.00;5.00;;;;;23.46;38.72;101286.97;4939364;28;47768;-46
2023/06/06 01:51:20;;;;;;;;;6.00;4.00;;;;;23.45;39.23;101284.44;4956719;28;45325;-46
2023/06/06 01:53:46;;;;;;;;;5.50;5.00;;;;;23.43;38.73;101279.22;4957022;28;45346;-44
2023/06/06 01:56:14;;;;;;;;;7.75;5.75;;;;;23.41;39.14;101275.84;4957436;28;45652;-46
2023/06/06 01:58:40;;;;;;;;;7.50;5.75;;;;;23.39;38.90;101271.56;4957133;28;46286;-44
2023/06/06 02:01:06;;;;;;;;;7.25;6.25;;;;;23.39;38.48;101279.50;4956806;28;45390;-47
2023/06/06 02:03:32;;;;;;;;;6.00;6.00;;;;;23.37;38.33;101271.69;4956809;28;45522;-43
2023/06/06 02:05:57;;;;;;;;;6.75;4.00;;;;;23.39;38.74;101283.03;4956970;28;45361;-43
2023/06/06 02:08:23;;;;;;;;;4.75;4.75;;;;;23.38;38.42;101275.16;4956517;28;46358;-42
2023/06/06 02:10:49;;;;;;;;;6.00;5.75;;;;;23.37;39.04;101274.31;4956642;28;45374;-43
2023/06/06 02:13:15;;;;;;;;;7.50;6.25;;;;;23.37;38.54;101278.78;4957137;28;45334;-43
2023/06/06 02:15:41;;;;;;;;;5.25;3.50;;;;;23.35;39.05;101273.56;4957256;28;45236;-44
2023/06/06 02:18:06;;;;;;;;;7.00;5.00;;;;;23.35;38.65;101278.00;4959434;28;47156;-42
2023/06/06 02:20:31;;;;;;;;;7.25;4.25;;;;;23.34;39.00;101279.78;4959561;28;55320;-44
2023/06/06 02:22:57;;;;;;;;;5.00;4.50;;;;;23.34;38.64;101266.56;4960349;28;45320;-44
2023/06/06 02:25:23;;;;;;;;;5.25;4.00;;;;;23.31;38.23;101266.78;4960217;28;45188;-46
2023/06/06 02:27:49;;;;;;;;;4.50;4.50;;;;;23.31;38.52;101278.19;4959781;28;47062;-45
2023/06/06 02:30:15;;;;;;;;;7.00;5.00;;;;;23.31;38.93;101274.72;4959668;28;45503;-45
2023/06/06 02:32:41;;;;;;;;;8.50;6.00;;;;;23.31;38.69;101287.94;4960162;28;45977;-45
2023/06/06 02:35:07;;;;;;;;;4.50;4.00;;;;;23.30;38.37;101279.13;4959835;28;45261;-45
2023/06/06 02:37:33;;;;;;;;;5.00;4.00;;;;;23.29;38.56;101284.53;4959657;28;46285;-46
2023/06/06 02:40:05;;;;;;;;;5.00;5.00;;;;;23.26;38.76;101277.59;4959998;28;45839;-47
2023/06/06 02:42:31;;;;;;;;;8.00;6.00;;;;;23.25;38.79;101281.22;4959797;28;45296;-45
2023/06/06 02:44:56;;;;;;;;;5.25;4.25;;;;;23.24;38.89;101270.72;4959620;28;46004;-46
2023/06/06 02:47:21;;;;;;;;;5.00;5.00;;;;;23.25;38.65;101280.34;4958943;28;61415;-43
2023/06/06 02:49:47;;;;;;;;;8.00;4.00;;;;;23.22;38.69;101268.16;4959347;28;49092;-42
2023/06/06 02:52:13;;;;;;;;;7.00;5.50;;;;;23.22;38.90;101275.25;4942569;28;45754;-44
2023/06/06 02:54:40;;;;;;;;;6.00;6.00;;;;;23.19;38.64;101264.84;4942488;28;45449;-45
2023/06/06 02:57:05;;;;;;;;;3.75;3.50;;;;;23.20;38.84;101269.22;4941960;28;46286;-45
2023/06/06 02:59:31;;;;;;;;;8.75;6.75;;;;;23.17;39.05;101275.47;4959482;28;45260;-44
2023/06/06 03:01:56;;;;;;;;;2.25;1.50;;;;;23.17;38.93;101257.84;4959506;28;45260;-46
2023/06/06 03:04:22;;;;;;;;;5.25;4.50;;;;;23.17;38.79;101270.19;4959491;28;45283;-41
2023/06/06 03:06:48;;;;;;;;;6.50;5.00;;;;;23.15;38.23;101265.00;4959723;28;46302;-44
2023/06/06 03:09:13;;;;;;;;;4.50;3.50;;;;;23.15;38.76;101270.31;4959870;28;45697;-46
2023/06/06 03:11:38;;;;;;;;;5.00;5.00;;;;;23.15;38.22;101267.66;4959215;28;46821;-42
2023/06/06 03:14:04;;;;;;;;;5.75;5.00;;;;;23.16;38.68;101271.13;4959474;28;45224;-44
2023/06/06 03:16:30;;;;;;;;;6.00;5.00;;;;;23.15;38.62;101267.66;4958962;28;47469;-42
2023/06/06 03:18:55;;;;;;;;;6.00;4.00;;;;;23.15;38.36;101262.38;4959026;28;45366;-45
2023/06/06 03:21:21;;;;;;;;;5.75;5.75;;;;;23.15;38.43;101269.47;4959288;28;45686;-46
2023/06/06 03:23:47;;;;;;;;;9.00;6.50;;;;;23.14;38.70;101271.25;4942200;28;45344;-46
2023/06/06 03:26:13;;;;;;;;;7.00;6.25;;;;;23.13;38.73;101264.25;4959186;28;46120;-49
2023/06/06 03:28:39;;;;;;;;;5.75;5.00;;;;;23.11;38.81;101263.47;4957575;28;45493;-45
2023/06/06 03:31:06;;;;;;;;;5.00;5.00;;;;;23.11;38.82;101254.72;4959030;28;45234;-45
2023/06/06 03:33:32;;;;;;;;;5.50;5.50;;;;;23.10;38.55;101267.06;4959235;28;45625;-43
2023/06/06 03:35:58;;;;;;;;;10.25;6.00;;;;;23.10;38.49;101263.59;4958796;28;46279;-45
2023/06/06 03:38:23;;;;;;;;;5.50;4.50;;;;;23.09;38.42;101261.88;4958818;28;45434;-44
2023/06/06 03:40:49;;;;;;;;;5.75;5.75;;;;;23.07;38.91;101267.25;4959358;28;45376;-44
2023/06/06 03:43:15;;;;;;;;;8.50;6.50;;;;;23.05;38.77;101261.22;4959061;28;45442;-44
2023/06/06 03:45:40;;;;;;;;;6.25;5.50;;;;;23.05;38.93;101265.63;4958539;28;46009;-46
2023/06/06 03:48:06;;;;;;;;;7.75;6.00;;;;;23.03;38.74;101271.03;4958361;28;45275;-44
2023/06/06 03:50:32;;;;;;;;;10.25;8.75;;;;;23.01;38.94;101271.13;4958856;28;45252;-47
2023/06/06 03:52:58;;;;;;;;;7.50;6.25;;;;;22.98;38.72;101270.47;4958952;28;45362;-46
2023/06/06 03:55:23;;;;;;;;;6.25;6.25;;;;;22.96;39.02;101272.34;4958612;28;46219;-41
2023/06/06 03:57:50;;;;;;;;;6.75;4.00;;;;;22.97;38.83;101274.03;4941429;28;45374;-41
2023/06/06 04:00:15;;;;;;;;;10.00;6.75;;;;;22.96;39.04;101272.34;4957819;28;45300;-42
2023/06/06 04:02:41;;;;;;;;;8.50;6.50;;;;;22.93;39.22;101273.34;4958662;28;45558;-44
2023/06/06 04:05:08;;;;;;;;;6.00;6.00;;;;;22.93;39.15;101278.63;4958457;28;45378;-47
2023/06/06 04:07:34;;;;;;;;;8.00;7.00;;;;;22.92;39.09;101274.31;4958312;28;45872;-44
2023/06/06 04:10:00;;;;;;;;;9.75;6.50;;;;;22.91;39.17;101275.25;4958512;28;45301;-44
2023/06/06 04:12:26;;;;;;;;;10.50;7.25;;;;;22.89;39.16;101277.13;4957252;28;45573;-44
2023/06/06 04:14:51;;;;;;;;;9.50;7.00;;;;;22.89;39.04;101273.63;4940902;28;47125;-43
2023/06/06 04:17:21;;;;;;;;;11.00;6.50;;;;;22.87;39.24;101275.53;4958018;28;45466;-48
2023/06/06 04:19:47;;;;;;;;;9.00;7.50;;;;;22.85;39.27;101276.47;4958382;28;45269;-47
2023/06/06 04:22:17;;;;;;;;;10.00;6.50;;;;;22.86;39.04;101272.00;4958451;28;45682;-45
2023/06/06 04:24:43;;;;;;;;;12.50;8.25;;;;;22.84;38.84;101274.75;4957983;28;46415;-42
2023/06/06 04:27:09;;;;;;;;;8.50;7.25;;;;;22.84;39.08;101266.84;4957911;28;45359;-47
2023/06/06 04:29:34;;;;;;;;;11.00;10.50;;;;;22.80;38.98;101270.59;4958110;28;45290;-48
2023/06/06 04:32:01;;;;;;;;;7.50;7.00;;;;;22.83;39.21;101278.34;4958489;28;45331;-46
2023/06/06 04:34:29;;;;;;;;;13.00;9.25;;;;;22.81;39.31;101274.94;4939986;28;45450;-50
2023/06/06 04:36:56;;;;;;;;;13.00;8.75;;;;;22.78;39.06;101269.81;4957856;28;45465;-48
2023/06/06 04:39:22;;;;;;;;;9.00;9.00;;;;;22.78;38.93;101274.25;4957835;28;45443;-47
2023/06/06 04:41:48;;;;;;;;;9.25;9.00;;;;;22.76;39.14;101270.84;4958071;28;45594;-48
2023/06/06 04:44:15;;;;;;;;;9.00;7.75;;;;;22.74;39.67;101273.59;4957682;28;47108;-49
2023/06/06 04:46:41;;;;;;;;;10.25;10.00;;;;;22.72;39.45;101270.19;4940682;28;45802;-46
2023/06/06 04:49:09;;;;;;;;;6.75;4.75;;;;;22.72;39.85;101280.75;4940728;28;45255;-47
2023/06/06 04:51:36;;;;;;;;;11.00;8.75;;;;;22.73;39.92;101274.53;4957866;28;45507;-48
2023/06/06 04:54:05;;;;;;;;;10.25;10.00;;;;;22.73;39.52;101271.03;4957526;28;47112;-48
2023/06/06 04:56:31;;;;;;;;;12.25;9.75;;;;;22.70;39.98;101275.56;4957425;28;45310;-48
2023/06/06 04:58:57;;;;;;;;;13.00;10.25;;;;;22.70;39.89;101279.97;4957333;28;45391;-42
2023/06/06 05:01:23;;;;;;;;;14.75;11.25;;;;;22.70;39.37;101277.34;4958283;28;45535;-44
2023/06/06 05:03:51;;;;;;;;;10.25;8.50;;;;;22.67;39.50;101273.09;4957497;28;45252;-45
2023/06/06 05:06:17;;;;;;;;;13.75;11.25;;;;;22.68;39.84;101271.28;4957481;28;45853;-47
2023/06/06 05:08:46;;;;;;;;;11.50;9.75;;;;;22.67;39.88;101274.88;4957545;28;45499;-41
2023/06/06 05:11:11;;;;;;;;;14.00;11.00;;;;;22.67;40.23;101280.16;4956946;28;45640;-46
2023/06/06 05:13:37;;;;;;;;;14.00;10.25;;;;;22.65;40.60;101277.59;4955019;28;47299;-44
2023/06/06 05:16:03;;;;;;;;;11.25;10.50;;;;;22.64;40.08;101278.53;4944831;28;45466;-44
2023/06/06 05:18:31;;;;;;;;;12.50;9.25;;;;;22.64;39.94;101277.72;4955623;28;45637;-44
2023/06/06 05:21:00;;;;;;;;;17.75;14.25;;;;;22.61;40.24;101283.16;4957528;28;45389;-44
2023/06/06 05:23:30;;;;;;;;;17.50;14.50;;;;;22.53;39.77;101281.81;4957475;28;45513;-47
2023/06/06 05:25:57;;;;;;;;;21.25;15.00;;;;;22.45;39.84;101273.44;4939998;28;45926;-44
2023/06/06 05:28:26;;;;;;;;;16.50;14.75;;;;;22.35;40.15;101275.75;4957661;28;45461;-50
2023/06/06 05:30:52;;;;;;;;;17.00;15.00;;;;;22.28;40.09;101273.53;4957732;28;45224;-47
2023/06/06 05:33:21;;;;;;;;;20.75;17.50;;;;;22.23;40.27;101282.56;4956987;28;46210;-45
2023/06/06 05:35:47;;;;;;;;;19.25;15.75;;;;;22.21;40.47;101281.78;4956635;28;45346;-48
2023/06/06 05:38:13;;;;;;;;;21.25;15.00;;;;;22.16;40.35;101275.91;4956468;28;45480;-45
2023/06/06 05:40:38;;;;;;;;;17.00;14.50;;;;;22.16;40.58;101275.91;4956597;28;45426;-43
2023/06/06 05:43:03;;;;;;;;;17.00;12.00;;;;;22.21;40.98;101276.50;4956135;28;49872;-45
2023/06/06 05:45:29;;;;;;;;;18.67;14.67;;;;;22.25;40.66;101277.22;4955897;28;64098;-45
2023/06/06 05:47:54;;;;;;;;;17.00;15.75;;;;;22.28;40.79;101286.72;4957109;28;45307;-46
2023/06/06 05:50:19;;;;;;;;;13.75;12.50;;;;;22.30;40.47;101276.94;4957286;28;45271;-47
2023/06/06 05:52:45;;;;;;;;;15.25;12.50;;;;;22.33;40.56;101279.38;4958087;28;46024;-46
2023/06/06 05:55:27;;;;;;;;;15.75;13.50;;;;;22.33;40.26;101282.03;4959210;28;45496;-44
2023/06/06 05:57:52;;;;;;;;;18.75;14.75;;;;;22.36;40.52;101289.78;4960230;28;45449;-44
2023/06/06 06:00:17;;;;;;;;;17.50;14.25;;;;;22.38;40.44;101285.28;4960411;28;45648;-43
2023/06/06 06:02:43;;;;;;;;;14.25;12.25;;;;;22.38;40.67;101282.63;4960174;28;45407;-44
2023/06/06 06:05:09;;;;;;;;;15.50;14.25;;;;;22.39;40.67;101290.47;4960062;28;45292;-47
2023/06/06 06:07:34;;;;;;;;;16.00;11.00;;;;;22.41;40.79;101286.91;4960393;28;45425;-43
2023/06/06 06:09:59;;;;;;;;;13.50;12.25;;;;;22.40;40.76;101286.06;4960559;28;45777;-45
2023/06/06 06:12:24;;;;;;;;;10.33;9.00;;;;;22.44;40.44;101286.75;4959776;28;61011;-46
2023/06/06 06:14:50;;;;;;;;;14.75;14.00;;;;;22.45;40.58;101294.59;4959431;28;45291;-44
2023/06/06 06:17:15;;;;;;;;;15.75;12.25;;;;;22.45;40.96;101291.94;4958709;28;45302;-46
2023/06/06 06:19:41;;;;;;;;;11.00;11.00;;;;;22.48;41.01;101291.78;4942847;28;45534;-43
2023/06/06 06:22:06;;;;;;;;;13.00;12.25;;;;;22.51;40.63;101290.75;4959740;28;45384;-47
2023/06/06 06:24:31;;;;;;;;;15.50;12.75;;;;;22.54;40.55;101293.22;4942330;28;45699;-47
2023/06/06 06:26:57;;;;;;;;;12.75;12.00;;;;;22.57;40.06;101290.41;4960236;28;45434;-46
2023/06/06 06:29:22;;;;;;;;;16.00;15.00;;;;;22.60;40.44;101292.03;4960270;28;45343;-48
2023/06/06 06:31:47;;;;;;;;;15.50;12.50;;;;;22.61;40.09;101289.28;4959781;28;45240;-46
2023/06/06 06:34:13;;;;;;;;;17.33;13.67;;;;;22.66;40.39;101294.28;4941947;28;58983;-48
2023/06/06 06:36:38;;;;;;;;;19.00;12.50;;;;;22.67;39.95;101296.00;4942386;28;45372;-48
2023/06/06 06:39:03;;;;;;;;;13.75;13.00;;;;;22.70;40.44;101303.75;4959944;28;45568;-47
2023/06/06 06:41:29;;;;;;;;;14.33;13.33;;;;;22.70;40.28;101298.47;4959240;28;66287;-46
2023/06/06 06:43:54;;;;;;;;;13.00;11.67;;;;;22.73;40.10;101297.44;4959006;28;64312;-48
2023/06/06 06:46:20;;;;;;;;;18.00;14.75;;;;;22.74;40.08;101307.94;4959600;28;45535;-44
2023/06/06 06:48:45;;;;;;;;;14.75;14.25;;;;;22.74;40.04;101304.44;4959874;28;45370;-44
2023/06/06 06:51:13;;;;;;;;;18.50;17.50;;;;;22.74;40.61;101299.16;4959287;28;45436;-49
2023/06/06 06:53:39;;;;;;;;;17.75;13.50;;;;;22.73;40.31;101295.66;4959058;28;45457;-47
2023/06/06 06:56:05;;;;;;;;;18.00;13.75;;;;;22.76;39.96;101298.16;4959648;28;45262;-45
2023/06/06 06:58:33;;;;;;;;;19.75;15.00;;;;;22.77;40.04;101294.53;4959897;28;45525;-45
2023/06/06 07:01:01;;;;;;;;;15.75;13.25;;;;;22.79;40.12;101297.09;4959497;28;46338;-45
2023/06/06 07:03:27;;;;;;;;;15.00;13.50;;;;;22.80;39.93;101294.38;4958904;28;46014;-47
2023/06/06 07:05:53;;;;;;;;;14.25;12.25;;;;;22.81;40.00;101301.34;4959418;28;45354;-44
2023/06/06 07:08:18;;;;;;;;;16.00;14.00;;;;;22.82;40.03;101302.22;4959672;28;45477;-46
2023/06/06 07:10:43;;;;;;;;;15.25;13.50;;;;;22.83;39.78;101310.06;4959237;28;46277;-48
2023/06/06 07:13:10;;;;;;;;;15.25;13.50;;;;;22.84;39.90;101302.97;4958605;28;45270;-48
2023/06/06 07:15:38;;;;;;;;;19.75;16.00;;;;;22.85;39.88;101307.31;4958929;28;45442;-46
2023/06/06 07:18:03;;;;;;;;;20.00;14.25;;;;;22.85;40.11;101305.53;4958901;28;52640;-43
2023/06/06 07:20:29;;;;;;;;;18.00;15.00;;;;;22.85;39.78;101300.25;4959212;28;45862;-43
2023/06/06 07:22:55;;;;;;;;;19.50;14.00;;;;;22.83;40.12;101299.47;4959140;28;45334;-43
2023/06/06 07:25:21;;;;;;;;;13.00;12.00;;;;;22.88;40.53;101303.63;4959144;28;45411;-48
2023/06/06 07:27:46;;;;;;;;;17.00;12.75;;;;;22.88;40.00;101295.69;4959129;28;45640;-47
2023/06/06 07:30:14;;;;;;;;;15.75;13.00;;;;;22.92;40.16;101302.53;4959012;28;46111;-51
2023/06/06 07:32:41;;;;;;;;;10.50;9.50;;;;;22.93;40.46;101310.34;4940981;28;45695;-47
2023/06/06 07:35:11;;;;;;;;;14.00;12.50;;;;;22.95;40.58;101297.91;4958719;28;45267;-45
2023/06/06 07:37:37;;;;;;;;;16.00;11.75;;;;;22.94;40.26;101292.72;4959124;28;45478;-46
2023/06/06 07:40:05;;;;;;;;;13.25;11.25;;;;;22.95;40.54;101297.06;4958899;28;46758;-46
2023/06/06 07:42:35;;;;;;;;;14.50;11.00;;;;;22.98;40.24;101296.91;4959096;28;45805;-46
2023/06/06 07:45:00;;;;;;;;;18.25;13.00;;;;;23.00;40.30;101300.28;4941713;28;45472;-46
2023/06/06 07:47:26;;;;;;;;;15.50;13.50;;;;;23.01;40.37;101307.28;4958909;28;45326;-44
2023/06/06 07:49:52;;;;;;;;;22.75;17.50;;;;;23.01;40.14;101294.91;4958339;28;45553;-46
2023/06/06 07:52:17;;;;;;;;;17.50;15.50;;;;;23.04;39.91;101298.34;4958497;28;45385;-46
2023/06/06 07:54:43;;;;;;;;;21.75;17.75;;;;;23.02;40.14;101298.41;4958795;28;45571;-44
2023/06/06 07:57:10;;;;;;;;;21.75;16.75;;;;;23.02;40.23;101303.69;4941414;28;45491;-45
2023/06/06 07:59:36;;;;;;;;;25.75;18.00;;;;;23.01;40.21;101296.69;4958696;28;46188;-45
2023/06/06 08:02:01;;;;;;;;;16.50;15.00;;;;;23.03;40.04;101297.47;4958691;28;45200;-43
2023/06/06 08:04:27;;;;;;;;;15.50;13.75;;;;;23.03;40.17;101296.63;4958221;28;45252;-47
2023/06/06 08:06:53;;;;;;;;;19.00;16.00;;;;;23.04;40.16;101291.22;4958786;28;45497;-48
2023/06/06 08:09:19;;;;;;;;;18.00;14.75;;;;;23.07;39.83;101292.84;4958368;28;46634;-45
2023/06/06 08:11:44;;;;;;;;;16.25;13.00;;;;;23.08;39.96;101305.97;4958245;28;45251;-48
2023/06/06 08:14:10;;;;;;;;;16.00;11.25;;;;;23.10;40.14;101290.84;4957683;28;45870;-46
2023/06/06 08:16:35;;;;;;;;;14.25;13.00;;;;;23.10;39.81;101287.38;4958918;28;45363;-48
2023/06/06 08:19:01;;;;;;;;;11.75;11.00;;;;;23.13;39.91;101295.97;4957916;28;46181;-48
2023/06/06 08:21:26;;;;;;;;;15.50;13.25;;;;;23.14;39.92;101283.63;4958308;28;45380;-45
2023/06/06 08:23:53;;;;;;;;;12.67;9.00;;;;;23.16;40.15;101289.63;4957658;28;56696;-47
2023/06/06 08:26:23;;;;;;;;;11.50;10.75;;;;;23.17;40.32;101292.22;4958420;28;45539;-46
2023/06/06 08:28:49;;;;;;;;;15.25;14.00;;;;;23.18;40.02;101293.06;4957911;28;46368;-48
2023/06/06 08:31:14;;;;;;;;;14.25;12.00;;;;;23.20;40.04;101293.00;4957940;28;45187;-46
2023/06/06 08:33:41;;;;;;;;;15.75;13.00;;;;;23.21;39.68;101292.03;4957540;28;45437;-52
2023/06/06 14:24:06;;;;;;;;;11.25;10.00;;;;;24.05;37.69;101106.00;4959749;28;45350;-55
2023/06/06 14:26:34;;;;;;;;;12.00;11.00;;;;;24.04;37.13;101104.31;4963487;28;45840;-48
2023/06/06 14:29:00;;;;;;;;;10.00;9.00;;;;;24.06;36.83;101120.06;4963781;28;45405;-49
2023/06/06 14:31:25;;;;;;;;;11.50;9.75;;;;;24.05;36.80;101108.66;4967763;28;45271;-51
2023/06/06 14:33:51;;;;;;;;;12.25;9.75;;;;;24.04;36.67;101120.19;4968571;28;45392;-55
2023/06/06 14:36:18;;;;;;;;;8.75;8.75;;;;;24.05;36.79;101108.66;4960359;28;45858;-50
2023/06/06 14:38:43;;;;;;;;;8.00;7.25;;;;;24.06;36.33;101109.47;4964705;28;45234;-53
2023/06/06 14:41:09;;;;;;;;;8.50;8.00;;;;;24.06;36.55;101105.06;4964162;28;45401;-52
2023/06/06 14:43:35;;;;;;;;;11.25;10.00;;;;;24.06;36.45;101106.84;4963737;28;45533;-49
2023/06/06 14:46:04;;;;;;;;;8.00;8.00;;;;;24.05;36.55;101090.13;4968036;28;45662;-47
2023/06/06 14:48:29;;;;;;;;;11.00;9.25;;;;;24.06;36.39;101094.47;4963876;28;45286;-49
2023/06/06 14:50:55;;;;;;;;;8.00;8.00;;;;;24.07;35.88;101090.00;4964632;28;45343;-50
2023/06/06 14:53:20;;;;;;;;;8.50;8.50;;;;;24.07;36.09;101088.22;4960217;28;45366;-52
2023/06/06 14:55:46;;;;;;;;;10.00;8.25;;;;;24.07;36.02;101088.22;4960663;28;45504;-49
2023/06/06 14:58:11;;;;;;;;;7.25;7.25;;;;;24.08;35.56;101087.28;4962656;28;45413;-50
2023/06/06 15:00:37;;;;;;;;;7.50;7.25;;;;;24.07;35.71;101082.06;4964415;28;45366;-53
2023/06/06 15:03:02;;;;;;;;;8.00;8.00;;;;;24.07;35.22;101082.94;4981289;28;44908;-50
2023/06/06 15:05:28;;;;;;;;;8.50;7.00;;;;;24.07;35.58;101101.47;4981489;28;45229;-53
2023/06/06 15:07:54;;;;;;;;;8.00;8.00;;;;;24.06;35.48;101094.47;4976515;28;45291;-53
2023/06/06 15:10:20;;;;;;;;;9.50;8.00;;;;;24.07;35.67;101093.50;4966436;28;45317;-54
2023/06/06 15:12:45;;;;;;;;;10.75;7.75;;;;;24.07;35.26;101095.31;4967055;28;45660;-52
2023/06/06 15:15:10;;;;;;;;;10.50;7.75;;;;;24.07;35.59;101096.16;4965741;28;47175;-52
2023/06/06 15:17:36;;;;;;;;;9.50;7.00;;;;;24.07;34.99;101082.94;4963135;28;45259;-52
2023/06/06 15:20:02;;;;;;;;;10.75;7.50;;;;;24.08;35.35;101081.13;4945847;28;45783;-52
2023/06/06 15:22:27;;;;;;;;;8.00;7.50;;;;;24.06;35.56;101089.16;4968987;28;45410;-51
2023/06/06 15:24:53;;;;;;;;;8.00;8.00;;;;;24.06;34.96;101078.59;4967562;28;45460;-49
2023/06/06 15:27:19;;;;;;;;;9.25;8.75;;;;;24.06;34.70;101083.88;4962024;28;45428;-53
2023/06/06 15:29:47;;;;;;;;;8.50;7.75;;;;;24.06;35.07;101075.94;4965367;28;45352;-48
2023/06/06 15:32:12;;;;;;;;;6.00;6.00;;;;;24.06;35.28;101081.22;4964637;28;45380;-52
2023/06/06 15:34:38;;;;;;;;;9.00;7.50;;;;;24.07;34.54;101082.06;4966430;28;45604;-50
2023/06/06 15:37:05;;;;;;;;;8.00;8.00;;;;;24.05;34.96;101086.59;4946028;28;45315;-51
2023/06/06 15:39:30;;;;;;;;;10.00;7.00;;;;;24.04;34.94;101083.13;4959861;28;45318;-49
2023/06/06 15:41:56;;;;;;;;;9.50;8.00;;;;;24.05;34.25;101076.00;4959875;28;45350;-48
2023/06/06 15:44:21;;;;;;;;;9.50;8.75;;;;;24.05;34.43;101071.59;4960347;28;46120;-50
2023/06/06 15:46:46;;;;;;;;;10.75;8.50;;;;;24.04;34.33;101069.88;4963297;28;45326;-51
2023/06/06 15:49:13;;;;;;;;;11.00;8.75;;;;;24.05;34.27;101076.00;4960249;28;45433;-50
2023/06/06 15:51:40;;;;;;;;;7.25;6.75;;;;;24.04;34.33;101067.22;4960488;28;45517;-50
2023/06/06 15:54:06;;;;;;;;;10.25;7.00;;;;;24.05;34.05;101074.22;4959059;28;46183;-51
2023/06/06 15:56:32;;;;;;;;;10.00;7.00;;;;;24.05;34.71;101078.66;4967211;28;45661;-48
2023/06/06 15:58:58;;;;;;;;;10.50;9.50;;;;;24.04;34.52;101069.88;4963827;28;54970;-52
2023/06/06 16:01:24;;;;;;;;;8.00;7.00;;;;;24.05;34.37;101070.72;4959792;28;45299;-53
2023/06/06 16:03:50;;;;;;;;;9.00;8.50;;;;;24.04;34.77;101075.19;4959532;28;45434;-49
2023/06/06 16:06:15;;;;;;;;;10.00;10.00;;;;;24.05;34.15;101066.28;4960716;28;45333;-52
2023/06/06 16:08:40;;;;;;;;;8.50;8.50;;;;;24.05;34.74;101065.41;4962647;28;45446;-49
2023/06/06 16:11:06;;;;;;;;;8.25;8.25;;;;;24.05;34.21;101062.78;4962608;28;45287;-51
2023/06/06 16:13:31;;;;;;;;;7.25;7.25;;;;;24.04;34.91;101064.59;4964586;28;46924;-54
2023/06/06 16:15:57;;;;;;;;;10.25;8.00;;;;;24.05;34.89;101065.41;4961166;28;45398;-50
2023/06/06 16:18:22;;;;;;;;;8.00;8.00;;;;;24.05;34.30;101062.78;4962777;28;45460;-49
2023/06/06 16:20:48;;;;;;;;;8.50;8.50;;;;;24.04;34.41;101066.38;4959974;28;45622;-50
2023/06/06 16:23:13;;;;;;;;;12.00;9.00;;;;;24.05;34.43;101066.28;4958765;28;46148;-52
2023/06/06 16:25:38;;;;;;;;;9.00;7.00;;;;;24.05;34.92;101076.00;4965926;28;45341;-52
2023/06/06 16:28:06;;;;;;;;;8.00;8.00;;;;;24.04;34.28;101067.22;4960996;28;45350;-52
2023/06/06 16:30:31;;;;;;;;;9.00;7.75;;;;;24.04;34.59;101059.28;4962393;28;45326;-52
2023/06/06 16:32:56;;;;;;;;;8.00;8.00;;;;;24.05;33.99;101060.13;4959196;28;46953;-51
2023/06/06 16:35:22;;;;;;;;;9.75;6.50;;;;;24.04;33.98;101059.28;4960177;28;45174;-53
2023/06/06 16:37:47;;;;;;;;;9.00;9.00;;;;;24.03;34.00;101057.59;4962532;28;53418;-50
2023/06/06 16:40:12;;;;;;;;;9.00;8.00;;;;;24.04;33.86;101061.94;4965561;28;45620;-50
2023/06/06 16:42:41;;;;;;;;;9.00;9.00;;;;;24.04;33.83;101053.13;4959190;28;46652;-52
2023/06/06 16:45:07;;;;;;;;;10.00;9.00;;;;;24.05;33.83;101054.84;4958836;28;45873;-51
2023/06/06 16:47:36;;;;;;;;;7.25;7.25;;;;;24.04;33.86;101051.34;4957909;28;45379;-52
2023/06/06 16:50:01;;;;;;;;;10.25;8.75;;;;;24.03;34.25;101062.88;4960280;28;45645;-49
2023/06/06 16:52:26;;;;;;;;;9.50;8.25;;;;;24.04;34.28;101058.44;4945471;28;46326;-52
2023/06/06 16:54:52;;;;;;;;;8.00;8.00;;;;;24.04;33.54;101061.94;4967595;28;45236;-53
2023/06/06 16:57:17;;;;;;;;;12.75;9.25;;;;;24.04;33.95;101061.94;4959927;28;45448;-51
2023/06/06 16:59:43;;;;;;;;;9.50;9.50;;;;;24.05;33.94;101061.00;4959555;28;45212;-50
2023/06/06 17:02:11;;;;;;;;;11.25;9.00;;;;;24.04;34.13;101064.59;4968968;28;46341;-49